Elin Gertrude — WDI9304 — position and weather

sailwx.info

Track history (hours):
 
Tides and Currents Weather Stations Pressure Air Temp Water Temp Dewpoint Dewpoint Depression Visibility Wind Speed Wind Dir Waves Ship Positions

Elin Gertrude

Owner: GraeStone Logistics LLC, Murray, KY. More information available from US FCC via Universal Licensing System and Coast Guard Vessel Documentation Center.

Last reported at 2018-Feb-18 09:00 UTC. Time now 2018-Feb-18 09:02 UTC.
Position N 29°48' W 092°14'.

Length 24 m; draft 11.1 m.

Type: Sailing vessel. MMSI: 367747310.

Date/timePositionNaut miles runAvg speedWind from/ knotsBaromVisibWave heightAir tempDewpointWater temp
2018-Feb-18 09:00N 29°48' W 092°14'0 0.0
2018-Feb-18 08:30N 29°48' W 092°14'0 0.0
2018-Feb-18 08:00N 29°48' W 092°14'0 0.0
2018-Feb-18 07:30N 29°48' W 092°14'0 0.0
2018-Feb-18 07:00N 29°48' W 092°14'0 0.0
2018-Feb-18 06:29N 29°48' W 092°14'0 0.0
2018-Feb-18 06:01N 29°48' W 092°14'0 0.0
2018-Feb-18 05:30N 29°48' W 092°14'0 0.0
2018-Feb-18 05:00N 29°48' W 092°14'0 0.2
2018-Feb-18 04:30N 29°48' W 092°14'0 0.0
2018-Feb-18 04:00N 29°48' W 092°14'0 0.1
2018-Feb-18 03:30N 29°48' W 092°14'1 2.3
2018-Feb-18 03:00N 29°47' W 092°13'1 2.8
2018-Feb-18 02:30N 29°47' W 092°12'1 2.3
2018-Feb-18 02:01N 29°47' W 092°10'1 1.8
2018-Feb-18 01:30N 29°47' W 092°09'1 2.5
2018-Feb-18 01:00N 29°47' W 092°08'1 2.8
2018-Feb-18 00:30N 29°48' W 092°07'1 2.8
2018-Feb-17 23:59N 29°48' W 092°05'1 3.0
2018-Feb-17 23:30N 29°49' W 092°03'2 3.1
2018-Feb-17 23:00N 29°49' W 092°02'2 2.9
2018-Feb-17 22:21N 29°50' W 091°60'1 2.6
2018-Feb-17 21:57N 29°50' W 091°59'  
2018-Feb-15 14:30N 29°36' W 090°58'2 2.6
2018-Feb-15 13:47N 29°34' W 090°57'1 2.9
2018-Feb-15 13:30N 29°34' W 090°56'1 2.8
2018-Feb-15 13:00N 29°33' W 090°54'0 0.8
2018-Feb-15 12:27N 29°33' W 090°54'0 0.0
2018-Feb-15 12:00N 29°33' W 090°54'0 0.0
2018-Feb-15 10:48N 29°33' W 090°54'0 0.0
2018-Feb-15 10:18N 29°33' W 090°54'0 0.0
2018-Feb-15 09:56N 29°33' W 090°54'0 0.0
2018-Feb-15 09:28N 29°33' W 090°54'0 0.0
2018-Feb-15 08:50N 29°33' W 090°54'0 0.2
2018-Feb-15 08:02N 29°33' W 090°54'0 2.1
2018-Feb-15 07:54N 29°33' W 090°54'1 2.6
2018-Feb-15 07:30N 29°32' W 090°53'1 2.7
2018-Feb-15 06:59N 29°32' W 090°51'1 2.1
2018-Feb-15 06:30N 29°32' W 090°50'0 0.1
2018-Feb-15 06:00N 29°32' W 090°50'0 0.0
2018-Feb-15 05:29N 29°32' W 090°50'0 0.0
2018-Feb-15 05:00N 29°32' W 090°50'0 0.0
2018-Feb-15 04:31N 29°32' W 090°50'0 0.0
2018-Feb-15 04:00N 29°32' W 090°50'0 0.0
2018-Feb-15 03:31N 29°32' W 090°50'0 0.0
2018-Feb-15 03:00N 29°32' W 090°50'1 1.7
2018-Feb-15 02:30N 29°32' W 090°49'1 2.6
2018-Feb-15 02:00N 29°32' W 090°47'1 2.5
2018-Feb-15 01:30N 29°32' W 090°46'1 2.5
2018-Feb-15 01:00N 29°33' W 090°45'1 2.3
2018-Feb-15 00:30N 29°34' W 090°44'1 1.9
2018-Feb-15 00:01N 29°34' W 090°43'0 0.0
2018-Feb-14 23:30N 29°34' W 090°43'0 0.0
2018-Feb-14 23:01N 29°34' W 090°43'1 1.4
2018-Feb-14 22:30N 29°35' W 090°43'1 2.3
2018-Feb-14 22:00N 29°36' W 090°43'1 2.0
2018-Feb-14 21:30N 29°37' W 090°42'1 2.8
2018-Feb-14 21:00N 29°36' W 090°40'1 2.7
2018-Feb-14 20:29N 29°36' W 090°39'1 2.9
2018-Feb-14 20:00N 29°35' W 090°38'1 2.3
2018-Feb-14 19:30N 29°35' W 090°36'1 2.6
2018-Feb-14 18:59N 29°34' W 090°35'1 2.8
2018-Feb-14 18:30N 29°34' W 090°33'1 2.8
2018-Feb-14 18:00N 29°34' W 090°32'1 2.9
2018-Feb-14 17:30N 29°34' W 090°30'  
Track history (hours):
 
Tides and Currents Weather Stations Pressure Air Temp Water Temp Dewpoint Dewpoint Depression Visibility Wind Speed Wind Dir Waves Ship Positions

Elin Gertrude

Owner: GraeStone Logistics LLC, Murray, KY. More information available from US FCC via Universal Licensing System and Coast Guard Vessel Documentation Center.

Last reported at 2018-Feb-18 09:00 UTC. Time now 2018-Feb-18 09:02 UTC.
Position N 29°48' W 092°14'.

Length 24 m; draft 11.1 m.

Type: Sailing vessel. MMSI: 367747310.

Date/timePositionNaut miles runAvg speedWind from/ knotsBaromVisibWave heightAir tempDewpointWater temp
2018-Feb-18 09:00N 29°48' W 092°14'0 0.0
2018-Feb-18 08:30N 29°48' W 092°14'0 0.0
2018-Feb-18 08:00N 29°48' W 092°14'0 0.0
2018-Feb-18 07:30N 29°48' W 092°14'0 0.0
2018-Feb-18 07:00N 29°48' W 092°14'0 0.0
2018-Feb-18 06:29N 29°48' W 092°14'0 0.0
2018-Feb-18 06:01N 29°48' W 092°14'0 0.0
2018-Feb-18 05:30N 29°48' W 092°14'0 0.0
2018-Feb-18 05:00N 29°48' W 092°14'0 0.2
2018-Feb-18 04:30N 29°48' W 092°14'0 0.0
2018-Feb-18 04:00N 29°48' W 092°14'0 0.1
2018-Feb-18 03:30N 29°48' W 092°14'1 2.3
2018-Feb-18 03:00N 29°47' W 092°13'1 2.8
2018-Feb-18 02:30N 29°47' W 092°12'1 2.3
2018-Feb-18 02:01N 29°47' W 092°10'1 1.8
2018-Feb-18 01:30N 29°47' W 092°09'1 2.5
2018-Feb-18 01:00N 29°47' W 092°08'1 2.8
2018-Feb-18 00:30N 29°48' W 092°07'1 2.8
2018-Feb-17 23:59N 29°48' W 092°05'1 3.0
2018-Feb-17 23:30N 29°49' W 092°03'2 3.1
2018-Feb-17 23:00N 29°49' W 092°02'2 2.9
2018-Feb-17 22:21N 29°50' W 091°60'1 2.6
2018-Feb-17 21:57N 29°50' W 091°59'  
2018-Feb-15 14:30N 29°36' W 090°58'2 2.6
2018-Feb-15 13:47N 29°34' W 090°57'1 2.9
2018-Feb-15 13:30N 29°34' W 090°56'1 2.8
2018-Feb-15 13:00N 29°33' W 090°54'0 0.8
2018-Feb-15 12:27N 29°33' W 090°54'0 0.0
2018-Feb-15 12:00N 29°33' W 090°54'0 0.0
2018-Feb-15 10:48N 29°33' W 090°54'0 0.0
2018-Feb-15 10:18N 29°33' W 090°54'0 0.0
2018-Feb-15 09:56N 29°33' W 090°54'0 0.0
2018-Feb-15 09:28N 29°33' W 090°54'0 0.0
2018-Feb-15 08:50N 29°33' W 090°54'0 0.2
2018-Feb-15 08:02N 29°33' W 090°54'0 2.1
2018-Feb-15 07:54N 29°33' W 090°54'1 2.6
2018-Feb-15 07:30N 29°32' W 090°53'1 2.7
2018-Feb-15 06:59N 29°32' W 090°51'1 2.1
2018-Feb-15 06:30N 29°32' W 090°50'0 0.1
2018-Feb-15 06:00N 29°32' W 090°50'0 0.0
2018-Feb-15 05:29N 29°32' W 090°50'0 0.0
2018-Feb-15 05:00N 29°32' W 090°50'0 0.0
2018-Feb-15 04:31N 29°32' W 090°50'0 0.0
2018-Feb-15 04:00N 29°32' W 090°50'0 0.0
2018-Feb-15 03:31N 29°32' W 090°50'0 0.0
2018-Feb-15 03:00N 29°32' W 090°50'1 1.7
2018-Feb-15 02:30N 29°32' W 090°49'1 2.6
2018-Feb-15 02:00N 29°32' W 090°47'1 2.5
2018-Feb-15 01:30N 29°32' W 090°46'1 2.5
2018-Feb-15 01:00N 29°33' W 090°45'1 2.3
2018-Feb-15 00:30N 29°34' W 090°44'1 1.9
2018-Feb-15 00:01N 29°34' W 090°43'0 0.0
2018-Feb-14 23:30N 29°34' W 090°43'0 0.0
2018-Feb-14 23:01N 29°34' W 090°43'1 1.4
2018-Feb-14 22:30N 29°35' W 090°43'1 2.3
2018-Feb-14 22:00N 29°36' W 090°43'1 2.0
2018-Feb-14 21:30N 29°37' W 090°42'1 2.8
2018-Feb-14 21:00N 29°36' W 090°40'1 2.7
2018-Feb-14 20:29N 29°36' W 090°39'1 2.9
2018-Feb-14 20:00N 29°35' W 090°38'1 2.3
2018-Feb-14 19:30N 29°35' W 090°36'1 2.6
2018-Feb-14 18:59N 29°34' W 090°35'1 2.8
2018-Feb-14 18:30N 29°34' W 090°33'1 2.8
2018-Feb-14 18:00N 29°34' W 090°32'1 2.9
2018-Feb-14 17:30N 29°34' W 090°30'  

Dump ship's entire track history